Time;durP1;ratioP1;P1;durP2;ratioP2;P2;SDS_P1;SDS_P2;PMS_P1;PMS_P2;Temp;Humidity;BMP_temperature;BMP_pressure;BME280_temperature;BME280_humidity;BME280_pressure;Samples;Min_cycle;Max_cycle;Signal;HPM_P1;HPM_P2
2023/04/27 00:01:47;;;;;;;79.88;17.52;;;;;;;;;;5066450;28;20142;-58
2023/04/27 00:04:15;;;;;;;70.53;17.40;;;;;;;;;;5062542;28;20109;-58
2023/04/27 00:06:42;;;;;;;68.65;17.88;;;;;;;;;;5061360;28;20032;-52
2023/04/27 00:09:09;;;;;;;80.68;18.20;;;;;;;;;;5070096;28;20051;-54
2023/04/27 00:11:36;;;;;;;88.60;18.10;;;;;;;;;;5060739;28;20029;-54
2023/04/27 00:14:03;;;;;;;90.43;16.48;;;;;;;;;;5051284;28;20540;-53
2023/04/27 00:16:30;;;;;;;88.85;17.58;;;;;;;;;;5052638;28;20584;-55
2023/04/27 00:18:57;;;;;;;81.38;18.17;;;;;;;;;;5065072;28;20024;-59
2023/04/27 00:21:24;;;;;;;90.50;18.85;;;;;;;;;;5068987;28;20213;-55
2023/04/27 00:23:51;;;;;;;93.47;20.35;;;;;;;;;;5068818;28;20036;-58
2023/04/27 00:26:19;;;;;;;107.60;23.10;;;;;;;;;;5068486;28;20033;-56
2023/04/27 00:28:46;;;;;;;87.05;19.75;;;;;;;;;;5070943;28;20032;-55
2023/04/27 00:31:13;;;;;;;78.20;20.08;;;;;;;;;;5068222;28;20040;-59
2023/04/27 00:33:40;;;;;;;104.63;21.50;;;;;;;;;;5075199;28;20456;-57
2023/04/27 00:36:07;;;;;;;106.15;21.83;;;;;;;;;;5075869;28;20078;-59
2023/04/27 00:38:34;;;;;;;88.68;22.80;;;;;;;;;;5070516;28;20035;-58
2023/04/27 00:41:05;;;;;;;112.78;25.13;;;;;;;;;;5069783;28;20035;-58
2023/04/27 00:43:33;;;;;;;103.75;24.50;;;;;;;;;;5085165;28;20029;-58
2023/04/27 00:46:00;;;;;;;107.30;23.92;;;;;;;;;;5070530;28;20544;-57
2023/04/27 00:48:27;;;;;;;103.88;24.15;;;;;;;;;;5070664;28;20028;-58
2023/04/27 00:50:54;;;;;;;97.07;22.88;;;;;;;;;;5073176;28;20036;-57
2023/04/27 00:53:21;;;;;;;102.72;23.15;;;;;;;;;;5074482;28;20082;-56
2023/04/27 00:55:48;;;;;;;105.07;22.88;;;;;;;;;;5074161;28;20041;-58
2023/04/27 00:58:15;;;;;;;100.93;23.63;;;;;;;;;;5061382;28;20028;-57
2023/04/27 01:00:42;;;;;;;100.20;22.77;;;;;;;;;;5074376;28;20107;-58
2023/04/27 01:03:10;;;;;;;92.05;21.52;;;;;;;;;;5073769;28;20036;-56
2023/04/27 01:05:37;;;;;;;106.15;23.13;;;;;;;;;;5073314;28;20021;-58
2023/04/27 01:08:04;;;;;;;88.30;21.17;;;;;;;;;;5073371;28;20021;-58
2023/04/27 01:10:31;;;;;;;100.93;22.55;;;;;;;;;;5073438;28;20409;-57
2023/04/27 01:12:58;;;;;;;91.20;21.13;;;;;;;;;;5073211;28;20479;-56
2023/04/27 01:15:25;;;;;;;93.38;21.60;;;;;;;;;;5073538;28;20548;-58
2023/04/27 01:18:03;;;;;;;80.70;21.00;;;;;;;;;;5073788;28;20029;-58
2023/04/27 01:20:30;;;;;;;86.38;20.38;;;;;;;;;;5073795;28;20032;-58
2023/04/27 01:22:58;;;;;;;90.60;20.27;;;;;;;;;;5073055;28;20062;-58
2023/04/27 01:25:25;;;;;;;82.22;19.77;;;;;;;;;;5073903;28;20028;-58
2023/04/27 01:27:53;;;;;;;96.50;20.40;;;;;;;;;;5074006;28;20059;-56
2023/04/27 01:30:21;;;;;;;86.30;20.73;;;;;;;;;;5073568;28;20028;-55
2023/04/27 01:32:48;;;;;;;77.22;19.88;;;;;;;;;;5078121;28;20358;-61
2023/04/27 01:35:16;;;;;;;85.28;19.50;;;;;;;;;;5074593;28;20035;-60
2023/04/27 01:37:43;;;;;;;86.10;19.85;;;;;;;;;;5073461;28;20097;-59
2023/04/27 01:40:10;;;;;;;80.78;20.55;;;;;;;;;;5074029;28;20498;-60
2023/04/27 01:42:37;;;;;;;77.18;19.70;;;;;;;;;;5073249;28;20446;-60
2023/04/27 01:45:04;;;;;;;78.10;18.95;;;;;;;;;;5072947;28;20024;-60
2023/04/27 01:47:31;;;;;;;76.47;18.48;;;;;;;;;;5077692;28;20038;-60
2023/04/27 01:49:58;;;;;;;73.28;19.35;;;;;;;;;;5069562;28;20610;-60
2023/04/27 01:52:26;;;;;;;74.25;18.65;;;;;;;;;;5084990;28;20031;-60
2023/04/27 01:54:52;;;;;;;76.25;17.98;;;;;;;;;;5068707;28;20040;-60
2023/04/27 01:57:20;;;;;;;77.13;18.45;;;;;;;;;;5069639;28;20103;-60
2023/04/27 01:59:47;;;;;;;84.47;18.20;;;;;;;;;;5064613;28;20032;-60
2023/04/27 02:02:14;;;;;;;65.95;17.25;;;;;;;;;;5072627;28;20044;-60
2023/04/27 02:04:42;;;;;;;64.90;17.15;;;;;;;;;;5073461;28;20051;-60
2023/04/27 02:07:09;;;;;;;70.60;17.25;;;;;;;;;;5073329;28;20045;-60
2023/04/27 02:09:36;;;;;;;66.70;17.17;;;;;;;;;;5072487;28;20078;-60
2023/04/27 02:12:03;;;;;;;71.65;17.42;;;;;;;;;;5072852;28;20052;-60
2023/04/27 02:14:30;;;;;;;72.45;16.98;;;;;;;;;;5072872;28;20040;-60
2023/04/27 02:16:57;;;;;;;64.50;16.15;;;;;;;;;;5073352;28;20032;-61
2023/04/27 02:19:24;;;;;;;62.40;15.98;;;;;;;;;;5073243;28;20396;-61
2023/04/27 02:21:51;;;;;;;64.07;15.73;;;;;;;;;;5073065;28;20028;-60
2023/04/27 02:24:18;;;;;;;68.63;15.52;;;;;;;;;;5072977;28;20483;-60
2023/04/27 02:26:45;;;;;;;65.95;16.67;;;;;;;;;;5073123;28;20402;-60
2023/04/27 02:29:12;;;;;;;59.83;15.93;;;;;;;;;;5073068;28;20046;-60
2023/04/27 02:31:39;;;;;;;55.00;15.63;;;;;;;;;;5072928;28;20032;-60
2023/04/27 02:34:06;;;;;;;60.25;15.48;;;;;;;;;;5072687;28;20028;-60
2023/04/27 02:36:33;;;;;;;55.78;15.48;;;;;;;;;;5072798;28;20098;-60
2023/04/27 02:39:00;;;;;;;65.97;15.02;;;;;;;;;;5072832;28;20111;-60
2023/04/27 02:41:27;;;;;;;55.95;14.82;;;;;;;;;;5072762;28;20056;-60
2023/04/27 02:43:54;;;;;;;63.30;14.80;;;;;;;;;;5072461;28;20103;-60
2023/04/27 02:46:21;;;;;;;57.08;14.77;;;;;;;;;;5072661;28;20039;-60
2023/04/27 02:48:48;;;;;;;57.30;15.63;;;;;;;;;;5072739;28;20029;-60
2023/04/27 02:51:15;;;;;;;53.38;13.52;;;;;;;;;;5072670;28;20104;-60
2023/04/27 02:53:42;;;;;;;56.58;14.30;;;;;;;;;;5072159;28;20033;-60
2023/04/27 02:56:09;;;;;;;47.83;13.70;;;;;;;;;;5072166;28;20048;-60
2023/04/27 02:58:36;;;;;;;49.58;14.77;;;;;;;;;;5072454;28;20047;-60
2023/04/27 03:01:03;;;;;;;54.97;13.63;;;;;;;;;;5072518;28;20036;-60
2023/04/27 03:03:30;;;;;;;46.33;13.40;;;;;;;;;;5072350;28;20021;-60
2023/04/27 03:05:57;;;;;;;52.10;13.27;;;;;;;;;;5072421;28;20039;-60
2023/04/27 03:08:24;;;;;;;52.88;15.23;;;;;;;;;;5072375;28;20029;-60
2023/04/27 03:10:51;;;;;;;51.03;13.57;;;;;;;;;;5072365;28;20028;-60
2023/04/27 03:13:18;;;;;;;49.78;13.50;;;;;;;;;;5071597;28;20031;-60
2023/04/27 03:15:45;;;;;;;49.65;13.15;;;;;;;;;;5072144;28;20036;-60
2023/04/27 03:18:12;;;;;;;49.88;12.77;;;;;;;;;;5072217;28;20028;-60
2023/04/27 03:20:39;;;;;;;47.05;13.68;;;;;;;;;;5072140;28;20033;-60
2023/04/27 03:23:06;;;;;;;50.83;12.80;;;;;;;;;;5072049;28;20045;-60
2023/04/27 03:25:33;;;;;;;50.72;13.32;;;;;;;;;;5072070;28;20590;-60
2023/04/27 03:28:00;;;;;;;47.40;14.02;;;;;;;;;;5072053;28;20025;-60
2023/04/27 03:30:27;;;;;;;48.25;13.27;;;;;;;;;;5071757;28;20505;-60
2023/04/27 03:32:55;;;;;;;45.22;12.25;;;;;;;;;;5071861;28;20055;-60
2023/04/27 03:35:22;;;;;;;45.35;12.80;;;;;;;;;;5071687;28;20037;-60
2023/04/27 03:37:49;;;;;;;44.00;13.43;;;;;;;;;;5071883;28;20065;-60
2023/04/27 03:40:16;;;;;;;49.70;13.75;;;;;;;;;;5071837;28;20067;-60
2023/04/27 03:42:43;;;;;;;52.75;13.27;;;;;;;;;;5071698;28;20024;-60
2023/04/27 03:45:11;;;;;;;47.13;13.02;;;;;;;;;;5053616;28;20047;-60
2023/04/27 03:47:38;;;;;;;49.05;12.88;;;;;;;;;;5071619;28;20032;-60
2023/04/27 03:50:05;;;;;;;38.28;12.25;;;;;;;;;;5071791;28;20032;-60
2023/04/27 03:52:32;;;;;;;43.78;12.88;;;;;;;;;;5071681;28;20115;-60
2023/04/27 03:54:59;;;;;;;44.75;12.55;;;;;;;;;;5071449;28;20040;-60
2023/04/27 03:57:26;;;;;;;43.53;11.65;;;;;;;;;;5071593;28;20024;-60
2023/04/27 03:59:53;;;;;;;47.10;12.48;;;;;;;;;;5071704;28;20074;-60
2023/04/27 04:02:20;;;;;;;37.45;11.70;;;;;;;;;;5071574;28;20104;-60
2023/04/27 04:04:47;;;;;;;40.83;11.70;;;;;;;;;;5071568;28;20028;-60
2023/04/27 04:07:14;;;;;;;43.00;11.77;;;;;;;;;;5071435;28;20371;-60
2023/04/27 04:09:42;;;;;;;41.58;11.30;;;;;;;;;;5071493;28;20028;-60
2023/04/27 04:12:09;;;;;;;48.28;12.13;;;;;;;;;;5071223;28;20043;-60
2023/04/27 04:14:36;;;;;;;43.25;12.10;;;;;;;;;;5071443;28;20055;-60
2023/04/27 04:17:03;;;;;;;36.67;10.73;;;;;;;;;;5071497;28;20036;-60
2023/04/27 04:19:30;;;;;;;42.05;10.95;;;;;;;;;;5071373;28;20025;-60
2023/04/27 04:21:57;;;;;;;37.70;10.98;;;;;;;;;;5071305;28;20073;-60
2023/04/27 04:24:24;;;;;;;36.13;10.82;;;;;;;;;;5073205;28;20025;-60
2023/04/27 04:26:51;;;;;;;35.33;11.27;;;;;;;;;;5075534;28;20086;-60
2023/04/27 04:29:18;;;;;;;46.63;12.23;;;;;;;;;;5075250;28;20490;-60
2023/04/27 04:31:45;;;;;;;42.65;11.25;;;;;;;;;;5075312;28;20037;-60
2023/04/27 04:34:13;;;;;;;37.30;11.25;;;;;;;;;;5075349;28;20027;-60
2023/04/27 04:36:40;;;;;;;39.40;11.18;;;;;;;;;;5075039;28;20036;-60
2023/04/27 04:39:07;;;;;;;44.00;10.55;;;;;;;;;;5075273;28;20029;-59
2023/04/27 04:41:34;;;;;;;41.83;10.63;;;;;;;;;;5075197;28;20020;-60
2023/04/27 04:44:02;;;;;;;37.75;10.18;;;;;;;;;;5075078;28;20197;-60
2023/04/27 04:46:29;;;;;;;35.05;10.23;;;;;;;;;;5074875;28;20097;-60
2023/04/27 04:48:56;;;;;;;40.63;9.80;;;;;;;;;;5075088;28;20028;-60
2023/04/27 04:51:23;;;;;;;33.47;9.85;;;;;;;;;;5075061;28;20494;-60
2023/04/27 04:53:50;;;;;;;32.78;10.27;;;;;;;;;;5074761;28;20035;-60
2023/04/27 04:56:17;;;;;;;43.25;10.40;;;;;;;;;;5074818;28;20122;-60
2023/04/27 04:58:44;;;;;;;33.78;10.63;;;;;;;;;;5074781;28;20031;-60
2023/04/27 05:01:11;;;;;;;35.00;10.70;;;;;;;;;;5074828;28;20031;-60
2023/04/27 05:03:38;;;;;;;39.28;9.90;;;;;;;;;;5074617;28;20047;-60
2023/04/27 05:06:05;;;;;;;38.15;10.65;;;;;;;;;;5074750;28;20082;-60
2023/04/27 05:08:32;;;;;;;33.42;9.50;;;;;;;;;;5074565;28;20082;-60
2023/04/27 05:10:59;;;;;;;39.05;10.05;;;;;;;;;;5074535;28;20068;-60
2023/04/27 05:13:26;;;;;;;34.50;10.07;;;;;;;;;;5074525;28;20032;-60
2023/04/27 05:15:53;;;;;;;38.30;10.63;;;;;;;;;;5074320;28;20486;-60
2023/04/27 05:18:20;;;;;;;39.10;10.23;;;;;;;;;;5074521;28;20032;-60
2023/04/27 05:20:46;;;;;;;36.72;10.90;;;;;;;;;;5074455;28;20545;-60
2023/04/27 05:23:13;;;;;;;30.15;9.18;;;;;;;;;;5074315;28;20025;-60
2023/04/27 05:25:40;;;;;;;35.55;9.50;;;;;;;;;;5074370;28;20032;-60
2023/04/27 05:28:08;;;;;;;39.55;10.13;;;;;;;;;;5074349;28;20036;-60
2023/04/27 05:30:35;;;;;;;36.47;9.10;;;;;;;;;;5074277;28;20492;-60
2023/04/27 05:33:03;;;;;;;30.25;9.15;;;;;;;;;;5074150;28;20032;-60
2023/04/27 05:35:32;;;;;;;34.70;10.32;;;;;;;;;;5073528;28;20127;-60
2023/04/27 05:37:59;;;;;;;30.45;9.15;;;;;;;;;;5074201;28;20044;-60
2023/04/27 05:40:26;;;;;;;37.60;9.52;;;;;;;;;;5056005;28;20033;-60
2023/04/27 05:42:53;;;;;;;31.42;9.85;;;;;;;;;;5073979;28;20056;-60
2023/04/27 05:45:20;;;;;;;34.20;10.15;;;;;;;;;;5074055;28;20041;-60
2023/04/27 05:47:47;;;;;;;28.80;8.73;;;;;;;;;;5074037;28;20056;-60
2023/04/27 05:50:14;;;;;;;29.63;9.25;;;;;;;;;;5073907;28;20063;-60
2023/04/27 05:52:41;;;;;;;27.33;8.85;;;;;;;;;;5073790;28;20020;-60
2023/04/27 05:55:08;;;;;;;28.92;9.50;;;;;;;;;;5073603;28;20048;-60
2023/04/27 05:57:35;;;;;;;27.05;9.07;;;;;;;;;;5073827;28;20021;-60
2023/04/27 06:00:07;;;;;;;30.50;9.52;;;;;;;;;;5073785;28;20060;-60
2023/04/27 06:02:34;;;;;;;29.05;8.63;;;;;;;;;;5072181;28;20028;-60
2023/04/27 06:05:02;;;;;;;27.45;8.38;;;;;;;;;;5073654;28;20033;-60
2023/04/27 06:07:29;;;;;;;24.95;7.82;;;;;;;;;;5073431;28;20036;-60
2023/04/27 06:09:56;;;;;;;27.35;8.48;;;;;;;;;;5073510;28;20024;-60
2023/04/27 06:12:23;;;;;;;29.08;8.88;;;;;;;;;;5073439;28;20016;-60
2023/04/27 06:14:50;;;;;;;26.50;8.15;;;;;;;;;;5073291;28;20040;-60
2023/04/27 06:17:17;;;;;;;28.73;8.40;;;;;;;;;;5073401;28;20093;-60
2023/04/27 06:19:44;;;;;;;30.42;8.95;;;;;;;;;;5073363;28;20035;-60
2023/04/27 06:22:11;;;;;;;25.77;7.50;;;;;;;;;;5073041;28;20025;-60
2023/04/27 06:24:38;;;;;;;35.03;9.07;;;;;;;;;;5073322;28;20032;-61
2023/04/27 06:27:05;;;;;;;28.08;7.72;;;;;;;;;;5073068;28;20028;-60
2023/04/27 06:29:32;;;;;;;21.10;7.30;;;;;;;;;;5073213;28;20023;-60
2023/04/27 06:32:00;;;;;;;26.17;7.78;;;;;;;;;;5073009;28;20056;-60
2023/04/27 06:34:27;;;;;;;23.08;7.47;;;;;;;;;;5072878;28;20044;-60
2023/04/27 06:36:54;;;;;;;28.38;8.02;;;;;;;;;;5072833;28;20383;-61
2023/04/27 06:39:21;;;;;;;24.65;7.85;;;;;;;;;;5072969;28;20039;-60
2023/04/27 06:41:48;;;;;;;25.00;8.52;;;;;;;;;;5072902;28;20050;-60
2023/04/27 06:44:15;;;;;;;26.48;8.02;;;;;;;;;;5072810;28;20036;-61
2023/04/27 06:46:42;;;;;;;25.95;7.43;;;;;;;;;;5072520;28;20127;-61
2023/04/27 06:49:09;;;;;;;24.75;7.32;;;;;;;;;;5071997;28;20046;-60
2023/04/27 06:51:36;;;;;;;24.55;7.13;;;;;;;;;;5072645;28;20036;-60
2023/04/27 06:54:03;;;;;;;23.42;7.13;;;;;;;;;;5072462;28;20032;-60
2023/04/27 06:56:30;;;;;;;19.10;7.25;;;;;;;;;;5072502;28;20043;-60
2023/04/27 06:58:57;;;;;;;25.67;7.18;;;;;;;;;;5072600;28;20028;-60
2023/04/27 07:01:24;;;;;;;26.77;6.93;;;;;;;;;;5072297;28;20111;-60
2023/04/27 07:03:51;;;;;;;27.15;7.05;;;;;;;;;;5072448;28;20032;-60
2023/04/27 07:06:18;;;;;;;25.83;7.15;;;;;;;;;;5072436;28;20043;-60
2023/04/27 07:08:45;;;;;;;16.60;6.53;;;;;;;;;;5072426;28;20032;-60
2023/04/27 07:11:12;;;;;;;24.88;6.75;;;;;;;;;;5072378;28;20060;-60
2023/04/27 07:13:39;;;;;;;22.08;6.75;;;;;;;;;;5254419;22;20059;-45
2023/04/27 07:16:07;;;;;;;25.63;7.53;;;;;;;;;;5112803;28;20101;-46
2023/04/27 07:18:34;;;;;;;26.85;6.72;;;;;;;;;;5112977;28;20553;-45
2023/04/27 07:21:01;;;;;;;22.23;7.18;;;;;;;;;;5112863;28;20093;-46
2023/04/27 07:23:28;;;;;;;22.33;6.68;;;;;;;;;;5112664;28;20447;-45
2023/04/27 07:25:55;;;;;;;21.10;6.63;;;;;;;;;;5112783;28;20031;-45
2023/04/27 07:28:23;;;;;;;24.05;7.13;;;;;;;;;;5112627;28;20060;-45
2023/04/27 07:30:50;;;;;;;19.20;5.90;;;;;;;;;;5112700;28;20538;-46
2023/04/27 07:33:17;;;;;;;18.10;5.93;;;;;;;;;;5112546;28;20024;-47
2023/04/27 07:35:44;;;;;;;27.88;6.70;;;;;;;;;;5112513;28;20039;-46
2023/04/27 07:38:11;;;;;;;28.98;7.18;;;;;;;;;;5112486;28;20501;-45
2023/04/27 07:40:38;;;;;;;21.75;6.40;;;;;;;;;;5112800;28;20381;-47
2023/04/27 07:43:05;;;;;;;19.40;5.68;;;;;;;;;;5112440;28;20031;-45
2023/04/27 07:45:32;;;;;;;21.92;6.72;;;;;;;;;;5112453;28;20096;-45
2023/04/27 07:48:00;;;;;;;22.08;6.57;;;;;;;;;;5112407;28;20027;-46
2023/04/27 07:50:28;;;;;;;20.30;6.28;;;;;;;;;;5112440;28;20027;-45
2023/04/27 07:52:55;;;;;;;15.23;5.80;;;;;;;;;;5112496;28;20034;-45
2023/04/27 07:55:23;;;;;;;16.90;6.50;;;;;;;;;;5112184;28;20043;-45
2023/04/27 07:57:50;;;;;;;21.38;6.18;;;;;;;;;;5110630;28;20066;-45
2023/04/27 08:00:17;;;;;;;18.10;5.90;;;;;;;;;;5111957;28;20019;-47
2023/04/27 08:02:45;;;;;;;16.27;5.93;;;;;;;;;;5112087;28;20503;-45
2023/04/27 08:05:12;;;;;;;21.02;6.10;;;;;;;;;;5112133;28;20055;-43
2023/04/27 08:07:39;;;;;;;15.07;5.78;;;;;;;;;;5110730;28;20101;-42
2023/04/27 08:10:07;;;;;;;21.33;5.93;;;;;;;;;;5112084;28;20038;-43
2023/04/27 08:12:34;;;;;;;16.80;6.00;;;;;;;;;;5111790;28;20531;-43
2023/04/27 08:15:01;;;;;;;16.80;6.28;;;;;;;;;;5111923;28;20098;-40
2023/04/27 08:17:27;;;;;;;15.82;5.05;;;;;;;;;;5111955;28;20132;-45
2023/04/27 08:19:54;;;;;;;14.82;5.20;;;;;;;;;;5112034;28;20016;-45
2023/04/27 08:22:21;;;;;;;19.05;5.80;;;;;;;;;;5111844;28;20489;-47
2023/04/27 08:24:48;;;;;;;15.88;5.10;;;;;;;;;;5111954;28;20509;-45
2023/04/27 08:27:15;;;;;;;17.50;5.40;;;;;;;;;;5111968;28;20497;-45
2023/04/27 08:29:46;;;;;;;15.43;4.68;;;;;;;;;;5111909;28;20035;-45
2023/04/27 08:32:13;;;;;;;14.00;5.45;;;;;;;;;;5111677;28;20043;-45
2023/04/27 08:34:40;;;;;;;17.65;6.10;;;;;;;;;;5111893;28;20504;-46
2023/04/27 08:37:08;;;;;;;17.67;5.65;;;;;;;;;;5111783;28;20069;-45
2023/04/27 08:39:35;;;;;;;13.13;5.15;;;;;;;;;;5111844;28;20034;-45
2023/04/27 08:42:02;;;;;;;16.65;5.38;;;;;;;;;;5111626;28;20061;-45
2023/04/27 08:44:29;;;;;;;13.45;4.80;;;;;;;;;;5111843;28;20594;-45
2023/04/27 08:46:57;;;;;;;14.27;5.20;;;;;;;;;;5111575;28;20488;-44
2023/04/27 08:49:24;;;;;;;17.70;5.22;;;;;;;;;;5111672;28;20108;-45
2023/04/27 08:51:51;;;;;;;18.08;5.20;;;;;;;;;;5111613;28;20516;-45
2023/04/27 08:54:18;;;;;;;17.67;5.68;;;;;;;;;;5111815;28;20085;-45
2023/04/27 08:56:46;;;;;;;14.32;5.07;;;;;;;;;;5111627;28;20028;-45
2023/04/27 08:59:16;;;;;;;17.00;5.47;;;;;;;;;;5111646;28;20102;-45
2023/04/27 09:01:47;;;;;;;17.42;5.05;;;;;;;;;;5110342;28;20032;-45
2023/04/27 09:04:14;;;;;;;19.67;5.03;;;;;;;;;;5111690;28;20038;-45
2023/04/27 09:06:41;;;;;;;13.90;5.35;;;;;;;;;;5108833;28;20020;-43
2023/04/27 09:09:10;;;;;;;13.88;4.70;;;;;;;;;;5106039;28;20031;-44
2023/04/27 09:11:38;;;;;;;13.48;4.80;;;;;;;;;;5104006;28;20110;-43
2023/04/27 09:14:25;;;;;;;12.75;4.53;;;;;;;;;;5113001;28;20035;-45
2023/04/27 09:16:59;;;;;;;13.13;4.40;;;;;;;;;;5110746;28;20043;-44
2023/04/27 09:19:27;;;;;;;14.35;4.97;;;;;;;;;;5111377;28;20030;-45
2023/04/27 09:22:07;;;;;;;13.25;4.80;;;;;;;;;;5113666;27;20374;-43
2023/04/27 09:24:34;;;;;;;14.77;5.40;;;;;;;;;;5111368;28;20024;-46
2023/04/27 09:27:02;;;;;;;17.05;6.00;;;;;;;;;;5113587;28;20063;-47
2023/04/27 09:29:38;;;;;;;14.90;6.70;;;;;;;;;;5113718;28;20038;-45
2023/04/27 09:32:19;;;;;;;18.55;6.72;;;;;;;;;;5112065;28;20033;-44
2023/04/27 09:34:46;;;;;;;16.52;6.70;;;;;;;;;;5112492;28;20568;-43
2023/04/27 09:37:14;;;;;;;21.05;7.32;;;;;;;;;;5113422;28;20102;-43
2023/04/27 09:39:41;;;;;;;18.38;7.50;;;;;;;;;;5113555;28;20024;-45
2023/04/27 09:42:08;;;;;;;20.42;7.47;;;;;;;;;;5114009;28;20393;-44
2023/04/27 09:44:36;;;;;;;14.50;6.50;;;;;;;;;;5111136;28;20020;-45
2023/04/27 09:47:03;;;;;;;15.40;6.10;;;;;;;;;;5113787;28;20051;-45
2023/04/27 09:49:33;;;;;;;20.13;6.95;;;;;;;;;;5112985;28;20027;-45
2023/04/27 09:52:00;;;;;;;18.90;7.85;;;;;;;;;;5114505;28;20027;-46
2023/04/27 09:54:29;;;;;;;22.17;7.60;;;;;;;;;;5114116;28;20035;-45
2023/04/27 09:57:25;;;;;;;17.38;7.50;;;;;;;;;;5114248;28;20031;-47
2023/04/27 10:00:06;;;;;;;21.48;7.07;;;;;;;;;;5093231;28;20059;-45
2023/04/27 10:02:40;;;;;;;23.58;7.40;;;;;;;;;;5114189;28;20063;-45
2023/04/27 10:05:29;;;;;;;17.27;6.78;;;;;;;;;;5114382;28;20109;-45
2023/04/27 10:07:56;;;;;;;20.55;7.18;;;;;;;;;;5113864;28;20058;-46
2023/04/27 10:10:24;;;;;;;20.88;6.45;;;;;;;;;;5097183;28;20060;-44
2023/04/27 10:13:00;;;;;;;19.40;7.53;;;;;;;;;;5113481;28;20500;-42
2023/04/27 10:15:28;;;;;;;20.80;7.32;;;;;;;;;;5112945;28;20039;-45
2023/04/27 10:17:58;;;;;;;21.98;6.82;;;;;;;;;;5112649;28;20110;-43
2023/04/27 10:20:29;;;;;;;21.25;7.15;;;;;;;;;;5111497;28;20042;-42
2023/04/27 10:22:56;;;;;;;16.67;7.10;;;;;;;;;;5110301;28;20419;-44
2023/04/27 10:25:27;;;;;;;20.38;6.95;;;;;;;;;;5111576;28;20024;-43
2023/04/27 10:28:01;;;;;;;22.08;6.72;;;;;;;;;;5109175;28;20031;-45
2023/04/27 10:30:38;;;;;;;23.25;7.20;;;;;;;;;;5111873;28;20028;-43
2023/04/27 10:33:07;;;;;;;21.80;6.25;;;;;;;;;;5110862;27;20035;-46
2023/04/27 10:35:34;;;;;;;21.08;6.78;;;;;;;;;;5120434;27;20088;-43
2023/04/27 10:38:08;;;;;;;16.67;6.45;;;;;;;;;;5122817;27;20622;-45
2023/04/27 10:40:35;;;;;;;22.98;5.82;;;;;;;;;;5117251;27;20038;-43
2023/04/27 10:43:09;;;;;;;16.33;5.88;;;;;;;;;;5110407;28;20775;-43
2023/04/27 10:45:36;;;;;;;19.80;6.13;;;;;;;;;;5113845;27;20119;-45
2023/04/27 10:48:03;;;;;;;24.60;6.53;;;;;;;;;;5133115;27;20062;-44
2023/04/27 10:50:30;;;;;;;16.23;5.90;;;;;;;;;;5132946;27;20033;-44
2023/04/27 10:53:05;;;;;;;19.75;6.25;;;;;;;;;;5131798;27;20457;-42
2023/04/27 10:55:32;;;;;;;20.13;6.32;;;;;;;;;;5133627;27;20035;-43
2023/04/27 10:58:00;;;;;;;17.30;5.65;;;;;;;;;;5132449;27;20068;-43
2023/04/27 11:00:31;;;;;;;24.13;5.93;;;;;;;;;;5133048;27;20039;-45
2023/04/27 11:03:10;;;;;;;20.90;5.90;;;;;;;;;;5132564;27;20031;-45
2023/04/27 11:05:37;;;;;;;16.17;5.65;;;;;;;;;;5132062;27;20027;-43
2023/04/27 11:08:11;;;;;;;14.85;5.57;;;;;;;;;;5133566;27;20035;-43
2023/04/27 11:10:43;;;;;;;20.63;6.00;;;;;;;;;;5132969;27;20130;-44
2023/04/27 11:13:10;;;;;;;;;;;;;;;;;;5121284;27;20114;-45
2023/04/27 11:15:43;;;;;;;16.90;5.60;;;;;;;;;;5112532;27;19920;-45
2023/04/27 11:18:10;;;;;;;19.23;5.85;;;;;;;;;;5122024;27;20023;-45
2023/04/27 11:20:37;;;;;;;18.83;5.22;;;;;;;;;;5129324;27;20023;-42
2023/04/27 11:23:04;;;;;;;20.48;5.97;;;;;;;;;;5132601;27;20046;-45
2023/04/27 11:25:31;;;;;;;24.25;5.60;;;;;;;;;;5131338;27;20392;-45
2023/04/27 11:27:58;;;;;;;16.48;4.88;;;;;;;;;;5132831;27;20035;-42
2023/04/27 11:30:26;;;;;;;16.02;5.30;;;;;;;;;;5132816;27;20493;-43
2023/04/27 11:32:53;;;;;;;19.38;5.35;;;;;;;;;;5132205;27;20027;-43
2023/04/27 11:35:19;;;;;;;21.05;5.50;;;;;;;;;;5131341;27;20039;-42
2023/04/27 11:37:57;;;;;;;20.20;5.57;;;;;;;;;;5119982;27;20084;-41
2023/04/27 11:40:24;;;;;;;21.23;5.50;;;;;;;;;;5110030;28;20035;-43
2023/04/27 11:43:03;;;;;;;17.98;5.10;;;;;;;;;;5112212;28;20122;-45
2023/04/27 11:45:30;;;;;;;16.98;5.03;;;;;;;;;;5107538;28;20488;-45
2023/04/27 11:48:01;;;;;;;19.30;4.90;;;;;;;;;;5112436;28;20024;-44
2023/04/27 11:50:28;;;;;;;;;;;;;;;;;;5112124;28;20464;-47
2023/04/27 11:53:00;;;;;;;18.30;5.57;;;;;;;;;;5104465;28;20026;-46
2023/04/27 11:55:27;;;;;;;18.55;5.55;;;;;;;;;;5109651;28;20405;-44
2023/04/27 11:57:58;;;;;;;16.00;5.25;;;;;;;;;;5106238;28;20032;-47
2023/04/27 12:00:25;;;;;;;20.67;5.20;;;;;;;;;;5105220;28;20076;-45
2023/04/27 12:02:52;;;;;;;22.83;5.30;;;;;;;;;;5111207;28;20035;-46
2023/04/27 12:05:20;;;;;;;14.05;4.57;;;;;;;;;;5104520;28;20023;-47
2023/04/27 12:07:46;;;;;;;18.67;5.07;;;;;;;;;;5109857;28;20409;-46
2023/04/27 12:10:13;;;;;;;34.13;5.30;;;;;;;;;;5111579;28;20114;-47
2023/04/27 12:12:40;;;;;;;14.23;4.80;;;;;;;;;;5106470;28;20048;-47
2023/04/27 12:15:08;;;;;;;25.48;5.50;;;;;;;;;;5108890;28;20039;-47
2023/04/27 12:17:35;;;;;;;19.58;4.65;;;;;;;;;;5110465;28;20063;-44
2023/04/27 12:20:02;;;;;;;23.35;5.13;;;;;;;;;;5110128;28;20480;-46
2023/04/27 12:22:29;;;;;;;14.75;4.65;;;;;;;;;;5110185;28;20034;-44
2023/04/27 12:24:56;;;;;;;16.38;4.97;;;;;;;;;;5105549;28;20020;-45
2023/04/27 12:27:23;;;;;;;14.07;4.68;;;;;;;;;;5106714;28;20032;-44
2023/04/27 12:29:52;;;;;;;19.83;5.20;;;;;;;;;;5111416;28;20031;-46
2023/04/27 12:32:19;;;;;;;23.35;4.90;;;;;;;;;;5111629;28;20494;-46
2023/04/27 12:34:46;;;;;;;15.13;5.05;;;;;;;;;;5111958;28;20043;-46
2023/04/27 12:37:13;;;;;;;14.75;4.30;;;;;;;;;;5111798;28;20030;-46
2023/04/27 12:39:40;;;;;;;18.38;4.72;;;;;;;;;;5110409;28;20028;-46
2023/04/27 12:42:07;;;;;;;17.73;4.60;;;;;;;;;;5107230;28;20466;-43
2023/04/27 12:44:35;;;;;;;23.25;4.43;;;;;;;;;;5118038;28;20019;-44
2023/04/27 12:47:03;;;;;;;19.63;5.25;;;;;;;;;;5108944;27;20035;-48
2023/04/27 12:49:30;;;;;;;17.23;4.32;;;;;;;;;;5114360;27;20122;-46
2023/04/27 12:51:57;;;;;;;20.75;4.78;;;;;;;;;;5113757;28;20027;-45
2023/04/27 12:54:24;;;;;;;15.38;4.53;;;;;;;;;;5114016;28;20035;-45
2023/04/27 12:56:51;;;;;;;34.60;5.43;;;;;;;;;;5113842;28;20093;-45
2023/04/27 12:59:18;;;;;;;15.52;4.43;;;;;;;;;;5107112;28;20385;-46
2023/04/27 13:01:45;;;;;;;16.05;4.68;;;;;;;;;;5112590;28;20027;-46
2023/04/27 13:04:17;;;;;;;9.82;4.07;;;;;;;;;;5114101;28;20048;-46
2023/04/27 13:06:44;;;;;;;19.27;5.05;;;;;;;;;;5114444;28;20024;-46
2023/04/27 13:09:12;;;;;;;14.23;4.40;;;;;;;;;;5114914;28;20032;-45
2023/04/27 13:11:39;;;;;;;17.38;4.47;;;;;;;;;;5115097;28;20035;-44
2023/04/27 13:14:06;;;;;;;19.67;5.00;;;;;;;;;;5115356;28;20036;-44
2023/04/27 13:16:33;;;;;;;14.35;4.38;;;;;;;;;;5115233;28;20504;-44
2023/04/27 13:19:00;;;;;;;18.42;4.90;;;;;;;;;;5113875;28;20389;-44
2023/04/27 13:21:28;;;;;;;18.50;4.50;;;;;;;;;;5115031;28;20126;-44
2023/04/27 13:23:55;;;;;;;20.00;4.90;;;;;;;;;;5113397;28;20032;-44
2023/04/27 13:26:23;;;;;;;16.15;4.18;;;;;;;;;;5114672;28;20111;-44
2023/04/27 13:28:50;;;;;;;15.63;4.30;;;;;;;;;;5114907;28;20099;-44
2023/04/27 13:31:17;;;;;;;12.73;4.20;;;;;;;;;;5114773;28;20559;-44
2023/04/27 13:33:44;;;;;;;17.35;4.45;;;;;;;;;;5114670;28;20085;-44
2023/04/27 13:36:12;;;;;;;12.13;4.25;;;;;;;;;;5114987;28;20031;-44
2023/04/27 13:38:39;;;;;;;14.15;4.55;;;;;;;;;;5114795;28;20043;-44
2023/04/27 13:41:07;;;;;;;21.48;4.20;;;;;;;;;;5114837;28;20113;-44
2023/04/27 13:43:33;;;;;;;13.35;4.40;;;;;;;;;;5114932;28;20762;-43
2023/04/27 13:46:01;;;;;;;16.50;3.92;;;;;;;;;;5114642;28;20059;-44
2023/04/27 13:48:29;;;;;;;16.00;4.38;;;;;;;;;;5114567;28;20028;-44
2023/04/27 13:50:56;;;;;;;11.23;4.28;;;;;;;;;;5114686;28;20034;-44
2023/04/27 13:53:26;;;;;;;13.00;3.72;;;;;;;;;;5113320;28;20023;-44
2023/04/27 13:55:54;;;;;;;12.82;4.13;;;;;;;;;;5114421;28;20038;-44
2023/04/27 13:58:21;;;;;;;13.80;4.28;;;;;;;;;;5113934;28;20389;-44
2023/04/27 14:00:50;;;;;;;12.30;4.22;;;;;;;;;;5114519;28;20112;-44
2023/04/27 14:03:17;;;;;;;12.45;4.10;;;;;;;;;;5114171;28;20051;-43
2023/04/27 14:05:47;;;;;;;18.83;4.25;;;;;;;;;;5114298;28;20123;-44
2023/04/27 14:08:14;;;;;;;11.80;3.70;;;;;;;;;;5114201;28;20486;-44
2023/04/27 14:10:41;;;;;;;17.52;3.92;;;;;;;;;;5114197;28;20024;-44
2023/04/27 14:13:08;;;;;;;11.07;4.00;;;;;;;;;;5112463;28;20044;-44
2023/04/27 14:15:36;;;;;;;18.33;4.13;;;;;;;;;;5114075;28;20039;-44
2023/04/27 14:18:04;;;;;;;13.55;3.70;;;;;;;;;;5113943;28;20398;-44
2023/04/27 14:20:32;;;;;;;13.38;3.97;;;;;;;;;;5114020;28;20028;-44
2023/04/27 14:22:59;;;;;;;13.88;3.75;;;;;;;;;;5113822;28;20055;-44
2023/04/27 14:25:31;;;;;;;14.38;4.25;;;;;;;;;;5113987;28;20024;-44
2023/04/27 14:28:01;;;;;;;14.40;3.97;;;;;;;;;;5113818;27;20095;-44
2023/04/27 14:30:28;;;;;;;19.27;4.13;;;;;;;;;;5113948;27;20036;-44